sensor_id;sensor_type;location;lat;lon;timestamp;pressure;altitude;pressure_sealevel;temperature;humidity
20424;BME280;10371;49.042;8.002;2023-02-10T00:00:54;101825.81;;;-2.16;88.85
20424;BME280;10371;49.042;8.002;2023-02-10T00:01:54;101834.31;;;-2.16;89.11
20424;BME280;10371;49.042;8.002;2023-02-10T00:02:55;101828.34;;;-2.18;88.91
20424;BME280;10371;49.042;8.002;2023-02-10T00:03:55;101824.94;;;-2.23;88.95
20424;BME280;10371;49.042;8.002;2023-02-10T00:04:56;101826.63;;;-2.25;89.30
20424;BME280;10371;49.042;8.002;2023-02-10T00:05:56;101818.09;;;-2.29;89.10
20424;BME280;10371;49.042;8.002;2023-02-10T00:06:57;101819.78;;;-2.32;89.21
20424;BME280;10371;49.042;8.002;2023-02-10T00:07:57;101825.75;;;-2.29;89.37
20424;BME280;10371;49.042;8.002;2023-02-10T00:08:59;101824.91;;;-2.31;89.70
20424;BME280;10371;49.042;8.002;2023-02-10T00:09:59;101827.47;;;-2.34;89.71
20424;BME280;10371;49.042;8.002;2023-02-10T00:11:02;101830.00;;;-2.34;89.58
20424;BME280;10371;49.042;8.002;2023-02-10T00:12:03;101827.47;;;-2.34;89.76
20424;BME280;10371;49.042;8.002;2023-02-10T00:13:04;101830.88;;;-2.30;90.04
20424;BME280;10371;49.042;8.002;2023-02-10T00:14:04;101838.47;;;-2.35;89.92
20424;BME280;10371;49.042;8.002;2023-02-10T00:15:05;101829.13;;;-2.36;90.21
20424;BME280;10371;49.042;8.002;2023-02-10T00:16:07;101822.28;;;-2.40;89.92
20424;BME280;10371;49.042;8.002;2023-02-10T00:17:08;101822.28;;;-2.43;90.43
20424;BME280;10371;49.042;8.002;2023-02-10T00:18:08;101824.00;;;-2.45;90.29
20424;BME280;10371;49.042;8.002;2023-02-10T00:19:09;101830.78;;;-2.47;90.49
20424;BME280;10371;49.042;8.002;2023-02-10T00:20:09;101826.50;;;-2.48;90.39
20424;BME280;10371;49.042;8.002;2023-02-10T00:21:13;101832.47;;;-2.46;90.62
20424;BME280;10371;49.042;8.002;2023-02-10T00:22:14;101827.38;;;-2.46;90.59
20424;BME280;10371;49.042;8.002;2023-02-10T00:23:14;101835.88;;;-2.42;90.77
20424;BME280;10371;49.042;8.002;2023-02-10T00:24:14;101835.91;;;-2.41;90.60
20424;BME280;10371;49.042;8.002;2023-02-10T00:25:15;101831.66;;;-2.42;90.62
20424;BME280;10371;49.042;8.002;2023-02-10T00:26:15;101832.50;;;-2.44;91.13
20424;BME280;10371;49.042;8.002;2023-02-10T00:27:15;101831.63;;;-2.47;91.44
20424;BME280;10371;49.042;8.002;2023-02-10T00:28:20;101837.59;;;-2.44;91.90
20424;BME280;10371;49.042;8.002;2023-02-10T00:29:21;101838.44;;;-2.47;92.00
20424;BME280;10371;49.042;8.002;2023-02-10T00:30:21;101844.41;;;-2.45;92.00
20424;BME280;10371;49.042;8.002;2023-02-10T00:31:22;101834.19;;;-2.47;92.55
20424;BME280;10371;49.042;8.002;2023-02-10T00:32:22;101849.50;;;-2.45;92.58
20424;BME280;10371;49.042;8.002;2023-02-10T00:33:22;101832.50;;;-2.44;92.55
20424;BME280;10371;49.042;8.002;2023-02-10T00:34:23;101839.31;;;-2.45;92.75
20424;BME280;10371;49.042;8.002;2023-02-10T00:35:24;101839.31;;;-2.45;92.82
20424;BME280;10371;49.042;8.002;2023-02-10T00:36:24;101840.13;;;-2.43;92.81
20424;BME280;10371;49.042;8.002;2023-02-10T00:37:25;101841.84;;;-2.45;93.01
20424;BME280;10371;49.042;8.002;2023-02-10T00:38:25;101839.31;;;-2.45;92.93
20424;BME280;10371;49.042;8.002;2023-02-10T00:39:25;101851.19;;;-2.47;93.00
20424;BME280;10371;49.042;8.002;2023-02-10T00:40:26;101845.22;;;-2.49;93.38
20424;BME280;10371;49.042;8.002;2023-02-10T00:41:26;101851.16;;;-2.49;93.20
20424;BME280;10371;49.042;8.002;2023-02-10T00:42:26;101853.72;;;-2.50;93.42
20424;BME280;10371;49.042;8.002;2023-02-10T00:43:27;101859.66;;;-2.53;93.52
20424;BME280;10371;49.042;8.002;2023-02-10T00:44:27;101854.53;;;-2.54;93.79
20424;BME280;10371;49.042;8.002;2023-02-10T00:45:27;101846.88;;;-2.59;94.05
20424;BME280;10371;49.042;8.002;2023-02-10T00:46:27;101860.47;;;-2.55;93.92
20424;BME280;10371;49.042;8.002;2023-02-10T00:47:28;101849.41;;;-2.54;93.91
20424;BME280;10371;49.042;8.002;2023-02-10T00:48:28;101849.41;;;-2.54;94.25
20424;BME280;10371;49.042;8.002;2023-02-10T00:49:28;101847.72;;;-2.55;94.46
20424;BME280;10371;49.042;8.002;2023-02-10T00:50:29;101846.88;;;-2.54;94.44
20424;BME280;10371;49.042;8.002;2023-02-10T00:51:29;101855.41;;;-2.49;94.46
20424;BME280;10371;49.042;8.002;2023-02-10T00:52:30;101852.88;;;-2.51;94.38
20424;BME280;10371;49.042;8.002;2023-02-10T00:53:31;101851.16;;;-2.50;94.54
20424;BME280;10371;49.042;8.002;2023-02-10T00:54:31;101852.00;;;-2.50;94.65
20424;BME280;10371;49.042;8.002;2023-02-10T00:55:32;101852.81;;;-2.55;94.68
20424;BME280;10371;49.042;8.002;2023-02-10T00:56:32;101854.53;;;-2.56;94.60
20424;BME280;10371;49.042;8.002;2023-02-10T00:57:32;101853.69;;;-2.56;94.92
20424;BME280;10371;49.042;8.002;2023-02-10T00:58:32;101853.69;;;-2.52;94.66
20424;BME280;10371;49.042;8.002;2023-02-10T00:59:33;101857.94;;;-2.52;94.67
20424;BME280;10371;49.042;8.002;2023-02-10T01:00:33;101852.00;;;-2.51;94.85
20424;BME280;10371;49.042;8.002;2023-02-10T01:01:33;101862.19;;;-2.51;94.89
20424;BME280;10371;49.042;8.002;2023-02-10T01:02:33;101872.38;;;-2.51;94.79
20424;BME280;10371;49.042;8.002;2023-02-10T01:03:34;101864.72;;;-2.56;94.85
20424;BME280;10371;49.042;8.002;2023-02-10T01:04:34;101880.00;;;-2.57;94.89
20424;BME280;10371;49.042;8.002;2023-02-10T01:05:35;101874.03;;;-2.61;95.02
20424;BME280;10371;49.042;8.002;2023-02-10T01:06:35;101882.53;;;-2.63;95.11
20424;BME280;10371;49.042;8.002;2023-02-10T01:07:36;101878.28;;;-2.64;95.32
20424;BME280;10371;49.042;8.002;2023-02-10T01:08:36;101879.97;;;-2.63;95.45
20424;BME280;10371;49.042;8.002;2023-02-10T01:09:36;101879.94;;;-2.66;95.61
20424;BME280;10371;49.042;8.002;2023-02-10T01:10:37;101879.94;;;-2.70;95.64
20424;BME280;10371;49.042;8.002;2023-02-10T01:11:37;101876.47;;;-2.73;95.83
20424;BME280;10371;49.042;8.002;2023-02-10T01:12:38;101879.91;;;-2.73;96.03
20424;BME280;10371;49.042;8.002;2023-02-10T01:13:39;101884.19;;;-2.70;95.85
20424;BME280;10371;49.042;8.002;2023-02-10T01:14:39;101895.22;;;-2.68;96.10
20424;BME280;10371;49.042;8.002;2023-02-10T01:15:44;101893.53;;;-2.69;96.18
20424;BME280;10371;49.042;8.002;2023-02-10T01:16:45;101897.75;;;-2.71;96.28
20424;BME280;10371;49.042;8.002;2023-02-10T01:17:45;101902.84;;;-2.71;96.50
20424;BME280;10371;49.042;8.002;2023-02-10T01:18:45;101891.78;;;-2.75;96.55
20424;BME280;10371;49.042;8.002;2023-02-10T01:19:46;101901.13;;;-2.74;96.75
20424;BME280;10371;49.042;8.002;2023-02-10T01:20:47;101905.41;;;-2.73;96.77
20424;BME280;10371;49.042;8.002;2023-02-10T01:21:48;101900.31;;;-2.73;96.77
20424;BME280;10371;49.042;8.002;2023-02-10T01:22:48;101901.16;;;-2.71;96.86
20424;BME280;10371;49.042;8.002;2023-02-10T01:23:48;101899.44;;;-2.73;96.82
20424;BME280;10371;49.042;8.002;2023-02-10T01:24:49;101896.03;;;-2.75;96.83
20424;BME280;10371;49.042;8.002;2023-02-10T01:25:49;101896.84;;;-2.76;96.78
20424;BME280;10371;49.042;8.002;2023-02-10T01:26:49;101901.13;;;-2.75;96.98
20424;BME280;10371;49.042;8.002;2023-02-10T01:27:49;101904.53;;;-2.73;97.03
20424;BME280;10371;49.042;8.002;2023-02-10T01:28:50;101905.38;;;-2.74;97.12
20424;BME280;10371;49.042;8.002;2023-02-10T01:29:50;101890.03;;;-2.82;97.19
20424;BME280;10371;49.042;8.002;2023-02-10T01:30:50;101899.38;;;-2.79;97.05
20424;BME280;10371;49.042;8.002;2023-02-10T01:31:51;101900.22;;;-2.79;97.38
20424;BME280;10371;49.042;8.002;2023-02-10T01:32:54;101899.44;;;-2.75;97.62
20424;BME280;10371;49.042;8.002;2023-02-10T01:33:55;101902.84;;;-2.73;97.43
20424;BME280;10371;49.042;8.002;2023-02-10T01:34:55;101898.56;;;-2.77;97.71
20424;BME280;10371;49.042;8.002;2023-02-10T01:35:55;101902.84;;;-2.73;97.76
20424;BME280;10371;49.042;8.002;2023-02-10T01:36:56;101906.25;;;-2.71;97.92
20424;BME280;10371;49.042;8.002;2023-02-10T01:37:56;101904.59;;;-2.70;97.89
20424;BME280;10371;49.042;8.002;2023-02-10T01:38:57;101902.88;;;-2.70;98.04
20424;BME280;10371;49.042;8.002;2023-02-10T01:39:57;101895.22;;;-2.73;98.07
20424;BME280;10371;49.042;8.002;2023-02-10T01:40:57;101898.59;;;-2.74;98.20
20424;BME280;10371;49.042;8.002;2023-02-10T01:41:58;101901.13;;;-2.75;98.22
20424;BME280;10371;49.042;8.002;2023-02-10T01:42:58;101904.53;;;-2.75;98.73
20424;BME280;10371;49.042;8.002;2023-02-10T01:45:26;101898.53;;;-2.80;98.61
20424;BME280;10371;49.042;8.002;2023-02-10T01:46:30;101904.50;;;-2.81;98.84
20424;BME280;10371;49.042;8.002;2023-02-10T01:47:30;101907.88;;;-2.80;99.03
20424;BME280;10371;49.042;8.002;2023-02-10T01:48:31;101900.22;;;-2.79;99.07
20424;BME280;10371;49.042;8.002;2023-02-10T01:49:35;101907.06;;;-2.78;99.09
20424;BME280;10371;49.042;8.002;2023-02-10T01:51:00;101899.41;;;-2.78;98.94
20424;BME280;10371;49.042;8.002;2023-02-10T01:52:18;101901.97;;;-2.75;98.74
20424;BME280;10371;49.042;8.002;2023-02-10T01:53:22;101897.66;;;-2.82;99.07
20424;BME280;10371;49.042;8.002;2023-02-10T01:54:26;101903.63;;;-2.80;98.92
20424;BME280;10371;49.042;8.002;2023-02-10T01:55:32;101906.19;;;-2.80;99.19
20424;BME280;10371;49.042;8.002;2023-02-10T01:56:34;101906.19;;;-2.77;99.30
20424;BME280;10371;49.042;8.002;2023-02-10T01:57:35;101901.09;;;-2.80;99.18
20424;BME280;10371;49.042;8.002;2023-02-10T01:58:37;101900.22;;;-2.82;99.33
20424;BME280;10371;49.042;8.002;2023-02-10T01:59:42;101900.19;;;-2.85;99.52
20424;BME280;10371;49.042;8.002;2023-02-10T02:00:42;101900.19;;;-2.85;99.71
20424;BME280;10371;49.042;8.002;2023-02-10T02:01:42;101901.91;;;-2.84;99.73
20424;BME280;10371;49.042;8.002;2023-02-10T02:02:43;101895.94;;;-2.86;99.80
20424;BME280;10371;49.042;8.002;2023-02-10T02:03:44;101904.47;;;-2.82;99.68
20424;BME280;10371;49.042;8.002;2023-02-10T02:04:49;101903.63;;;-2.83;99.85
20424;BME280;10371;49.042;8.002;2023-02-10T02:05:50;101900.19;;;-2.85;99.72
20424;BME280;10371;49.042;8.002;2023-02-10T02:06:50;101899.28;;;-2.90;99.84
20424;BME280;10371;49.042;8.002;2023-02-10T02:07:51;101900.16;;;-2.88;99.91
20424;BME280;10371;49.042;8.002;2023-02-10T02:08:52;101899.31;;;-2.88;100.00
20424;BME280;10371;49.042;8.002;2023-02-10T02:09:53;101904.41;;;-2.88;100.00
20424;BME280;10371;49.042;8.002;2023-02-10T02:12:00;101899.31;;;-2.88;100.00
20424;BME280;10371;49.042;8.002;2023-02-10T02:12:49;101903.53;;;-2.90;100.00
20424;BME280;10371;49.042;8.002;2023-02-10T02:15:42;101906.91;;;-2.96;100.00
20424;BME280;10371;49.042;8.002;2023-02-10T02:17:00;101901.81;;;-2.98;100.00
20424;BME280;10371;49.042;8.002;2023-02-10T02:18:26;101900.06;;;-3.00;100.00
20424;BME280;10371;49.042;8.002;2023-02-10T02:19:38;101904.38;;;-2.93;100.00
20424;BME280;10371;49.042;8.002;2023-02-10T02:23:48;101902.72;;;-2.88;100.00
20424;BME280;10371;49.042;8.002;2023-02-10T02:24:58;101903.59;;;-2.84;100.00
20424;BME280;10371;49.042;8.002;2023-02-10T02:26:30;101901.06;;;-2.83;100.00
20424;BME280;10371;49.042;8.002;2023-02-10T02:27:54;101901.91;;;-2.82;100.00
20424;BME280;10371;49.042;8.002;2023-02-10T02:29:35;101898.50;;;-2.83;100.00
20424;BME280;10371;49.042;8.002;2023-02-10T02:31:02;101901.03;;;-2.84;100.00
20424;BME280;10371;49.042;8.002;2023-02-10T02:32:14;101901.03;;;-2.84;100.00
20424;BME280;10371;49.042;8.002;2023-02-10T02:33:22;101902.75;;;-2.85;100.00
20424;BME280;10371;49.042;8.002;2023-02-10T02:34:38;101906.13;;;-2.84;100.00
20424;BME280;10371;49.042;8.002;2023-02-10T02:35:59;101907.84;;;-2.86;100.00
20424;BME280;10371;49.042;8.002;2023-02-10T02:37:05;101904.44;;;-2.87;100.00
20424;BME280;10371;49.042;8.002;2023-02-10T02:38:08;101901.91;;;-2.87;100.00
20424;BME280;10371;49.042;8.002;2023-02-10T02:39:08;101907.00;;;-2.87;100.00
20424;BME280;10371;49.042;8.002;2023-02-10T02:40:10;101899.31;;;-2.92;100.00
20424;BME280;10371;49.042;8.002;2023-02-10T02:41:11;101904.38;;;-2.90;100.00
20424;BME280;10371;49.042;8.002;2023-02-10T02:42:16;101903.56;;;-2.87;100.00
20424;BME280;10371;49.042;8.002;2023-02-10T02:43:17;101912.06;;;-2.88;100.00
20424;BME280;10371;49.042;8.002;2023-02-10T02:44:17;101903.53;;;-2.92;100.00
20424;BME280;10371;49.042;8.002;2023-02-10T02:45:33;101900.16;;;-2.91;100.00
20424;BME280;10371;49.042;8.002;2023-02-10T02:46:56;101907.75;;;-2.96;100.00
20424;BME280;10371;49.042;8.002;2023-02-10T02:48:21;101900.97;;;-2.94;100.00
20424;BME280;10371;49.042;8.002;2023-02-10T02:49:34;101895.00;;;-2.97;100.00
20424;BME280;10371;49.042;8.002;2023-02-10T02:52:13;101897.56;;;-2.94;100.00
20424;BME280;10371;49.042;8.002;2023-02-10T02:54:30;101900.13;;;-2.94;100.00
20424;BME280;10371;49.042;8.002;2023-02-10T02:56:54;101907.75;;;-2.96;100.00
20424;BME280;10371;49.042;8.002;2023-02-10T02:58:47;101908.59;;;-2.97;100.00
20424;BME280;10371;49.042;8.002;2023-02-10T03:00:18;101912.88;;;-2.94;100.00
20424;BME280;10371;49.042;8.002;2023-02-10T03:01:28;101907.75;;;-2.97;100.00
20424;BME280;10371;49.042;8.002;2023-02-10T03:02:30;101912.00;;;-2.96;100.00
20424;BME280;10371;49.042;8.002;2023-02-10T03:03:34;101910.28;;;-2.97;100.00
20424;BME280;10371;49.042;8.002;2023-02-10T03:04:36;101923.06;;;-2.94;100.00
20424;BME280;10371;49.042;8.002;2023-02-10T03:05:37;101908.63;;;-2.95;100.00
20424;BME280;10371;49.042;8.002;2023-02-10T03:06:37;101909.44;;;-2.96;100.00
20424;BME280;10371;49.042;8.002;2023-02-10T03:07:38;101914.56;;;-2.95;100.00
20424;BME280;10371;49.042;8.002;2023-02-10T03:08:39;101917.09;;;-2.93;100.00
20424;BME280;10371;49.042;8.002;2023-02-10T03:09:41;101922.19;;;-2.96;100.00
20424;BME280;10371;49.042;8.002;2023-02-10T03:10:43;101923.91;;;-2.95;100.00
20424;BME280;10371;49.042;8.002;2023-02-10T03:11:43;101926.47;;;-2.95;100.00
20424;BME280;10371;49.042;8.002;2023-02-10T03:12:43;101926.47;;;-2.95;100.00
20424;BME280;10371;49.042;8.002;2023-02-10T03:13:43;101932.38;;;-2.96;100.00
20424;BME280;10371;49.042;8.002;2023-02-10T03:14:44;101930.69;;;-2.94;100.00
20424;BME280;10371;49.042;8.002;2023-02-10T03:15:44;101928.16;;;-2.94;100.00
20424;BME280;10371;49.042;8.002;2023-02-10T03:16:44;101928.16;;;-2.93;100.00
20424;BME280;10371;49.042;8.002;2023-02-10T03:17:45;101927.31;;;-2.93;100.00
20424;BME280;10371;49.042;8.002;2023-02-10T03:18:45;101927.31;;;-2.90;100.00
20424;BME280;10371;49.042;8.002;2023-02-10T03:19:46;101935.84;;;-2.89;100.00
20424;BME280;10371;49.042;8.002;2023-02-10T03:20:46;101932.44;;;-2.90;100.00
20424;BME280;10371;49.042;8.002;2023-02-10T03:21:46;101934.97;;;-2.90;100.00
20424;BME280;10371;49.042;8.002;2023-02-10T03:22:47;101931.56;;;-2.94;100.00
20424;BME280;10371;49.042;8.002;2023-02-10T03:23:47;101929.03;;;-2.92;100.00
20424;BME280;10371;49.042;8.002;2023-02-10T03:24:47;101929.03;;;-2.92;100.00
20424;BME280;10371;49.042;8.002;2023-02-10T03:25:48;101927.28;;;-2.96;99.63
20424;BME280;10371;49.042;8.002;2023-02-10T03:26:48;101926.41;;;-2.98;99.77
20424;BME280;10371;49.042;8.002;2023-02-10T03:27:48;101928.09;;;-2.99;99.76
20424;BME280;10371;49.042;8.002;2023-02-10T03:28:49;101925.56;;;-2.99;99.50
20424;BME280;10371;49.042;8.002;2023-02-10T03:29:49;101922.16;;;-2.99;99.50
20424;BME280;10371;49.042;8.002;2023-02-10T03:30:49;101929.84;;;-2.98;99.34
20424;BME280;10371;49.042;8.002;2023-02-10T03:31:50;101929.81;;;-3.01;99.46
20424;BME280;10371;49.042;8.002;2023-02-10T03:32:50;101926.38;;;-3.01;99.24
20424;BME280;10371;49.042;8.002;2023-02-10T03:33:53;101936.59;;;-2.98;99.42
20424;BME280;10371;49.042;8.002;2023-02-10T03:34:53;101925.56;;;-3.00;99.34
20424;BME280;10371;49.042;8.002;2023-02-10T03:35:53;101932.31;;;-3.02;99.22
20424;BME280;10371;49.042;8.002;2023-02-10T03:36:54;101919.53;;;-3.08;99.39
20424;BME280;10371;49.042;8.002;2023-02-10T03:37:54;101922.97;;;-3.02;99.17
20424;BME280;10371;49.042;8.002;2023-02-10T03:38:55;101920.41;;;-3.05;99.14
20424;BME280;10371;49.042;8.002;2023-02-10T03:39:55;101918.72;;;-3.04;99.41
20424;BME280;10371;49.042;8.002;2023-02-10T03:40:55;101918.72;;;-3.04;98.99
20424;BME280;10371;49.042;8.002;2023-02-10T03:41:56;101922.97;;;-3.05;98.97
20424;BME280;10371;49.042;8.002;2023-02-10T03:42:56;101922.09;;;-3.08;99.12
20424;BME280;10371;49.042;8.002;2023-02-10T03:43:56;101920.31;;;-3.12;99.05
20424;BME280;10371;49.042;8.002;2023-02-10T03:44:56;101928.06;;;-3.06;99.07
20424;BME280;10371;49.042;8.002;2023-02-10T03:46:01;101927.16;;;-3.11;99.17
20424;BME280;10371;49.042;8.002;2023-02-10T03:47:02;101933.16;;;-3.06;99.07
20424;BME280;10371;49.042;8.002;2023-02-10T03:48:02;101931.44;;;-3.09;99.11
20424;BME280;10371;49.042;8.002;2023-02-10T03:49:04;101922.94;;;-3.08;98.95
20424;BME280;10371;49.042;8.002;2023-02-10T03:50:04;101929.72;;;-3.08;99.06
20424;BME280;10371;49.042;8.002;2023-02-10T03:51:06;101930.63;;;-3.03;99.20
20424;BME280;10371;49.042;8.002;2023-02-10T03:52:07;101926.38;;;-3.03;99.07
20424;BME280;10371;49.042;8.002;2023-02-10T03:53:07;101923.81;;;-3.04;98.92
20424;BME280;10371;49.042;8.002;2023-02-10T03:54:08;101930.66;;;-3.00;99.07
20424;BME280;10371;49.042;8.002;2023-02-10T03:55:08;101930.59;;;-3.06;98.75
20424;BME280;10371;49.042;8.002;2023-02-10T03:56:08;101938.25;;;-3.05;98.91
20424;BME280;10371;49.042;8.002;2023-02-10T03:57:11;101928.88;;;-3.07;98.93
20424;BME280;10371;49.042;8.002;2023-02-10T03:58:11;101932.25;;;-3.10;98.73
20424;BME280;10371;49.042;8.002;2023-02-10T03:59:11;101932.31;;;-3.05;99.07
20424;BME280;10371;49.042;8.002;2023-02-10T04:00:12;101930.59;;;-3.06;99.00
20424;BME280;10371;49.042;8.002;2023-02-10T04:01:16;101934.81;;;-3.07;98.74
20424;BME280;10371;49.042;8.002;2023-02-10T04:02:17;101933.13;;;-3.08;98.88
20424;BME280;10371;49.042;8.002;2023-02-10T04:03:17;101930.59;;;-3.06;98.86
20424;BME280;10371;49.042;8.002;2023-02-10T04:04:18;101939.06;;;-3.09;98.68
20424;BME280;10371;49.042;8.002;2023-02-10T04:05:18;101936.50;;;-3.12;98.89
20424;BME280;10371;49.042;8.002;2023-02-10T04:06:18;101926.22;;;-3.18;98.83
20424;BME280;10371;49.042;8.002;2023-02-10T04:07:19;101940.69;;;-3.16;98.92
20424;BME280;10371;49.042;8.002;2023-02-10T04:08:19;101935.56;;;-3.20;99.12
20424;BME280;10371;49.042;8.002;2023-02-10T04:09:19;101940.72;;;-3.14;99.38
20424;BME280;10371;49.042;8.002;2023-02-10T04:10:19;101956.81;;;-3.15;99.09
20424;BME280;10371;49.042;8.002;2023-02-10T04:11:20;101951.72;;;-3.17;99.05
20424;BME280;10371;49.042;8.002;2023-02-10T04:12:21;101942.31;;;-3.21;99.27
20424;BME280;10371;49.042;8.002;2023-02-10T04:13:21;101962.78;;;-3.15;99.41
20424;BME280;10371;49.042;8.002;2023-02-10T04:14:21;101954.25;;;-3.18;99.11
20424;BME280;10371;49.042;8.002;2023-02-10T04:15:22;101949.97;;;-3.21;99.10
20424;BME280;10371;49.042;8.002;2023-02-10T04:16:22;101955.97;;;-3.16;99.52
20424;BME280;10371;49.042;8.002;2023-02-10T04:17:27;101955.09;;;-3.18;99.18
20424;BME280;10371;49.042;8.002;2023-02-10T04:18:27;101955.16;;;-3.15;99.23
20424;BME280;10371;49.042;8.002;2023-02-10T04:19:27;101955.94;;;-3.19;98.79
20424;BME280;10371;49.042;8.002;2023-02-10T04:20:28;101941.44;;;-3.24;99.24
20424;BME280;10371;49.042;8.002;2023-02-10T04:21:28;101961.91;;;-3.15;99.25
20424;BME280;10371;49.042;8.002;2023-02-10T04:22:28;101961.03;;;-3.19;98.84
20424;BME280;10371;49.042;8.002;2023-02-10T04:23:29;101956.75;;;-3.21;99.16
20424;BME280;10371;49.042;8.002;2023-02-10T04:24:29;101949.94;;;-3.24;99.07
20424;BME280;10371;49.042;8.002;2023-02-10T04:25:30;101957.59;;;-3.21;98.89
20424;BME280;10371;49.042;8.002;2023-02-10T04:26:30;101959.28;;;-3.24;98.87
20424;BME280;10371;49.042;8.002;2023-02-10T04:27:30;101959.28;;;-3.26;98.98
20424;BME280;10371;49.042;8.002;2023-02-10T04:28:31;101960.09;;;-3.27;98.67
20424;BME280;10371;49.042;8.002;2023-02-10T04:29:31;101953.31;;;-3.28;98.75
20424;BME280;10371;49.042;8.002;2023-02-10T04:30:32;101957.50;;;-3.30;98.49
20424;BME280;10371;49.042;8.002;2023-02-10T04:31:32;101950.69;;;-3.34;98.54
20424;BME280;10371;49.042;8.002;2023-02-10T04:32:32;101953.22;;;-3.35;98.66
20424;BME280;10371;49.042;8.002;2023-02-10T04:33:32;101949.81;;;-3.36;98.74
20424;BME280;10371;49.042;8.002;2023-02-10T04:34:33;101954.91;;;-3.34;98.58
20424;BME280;10371;49.042;8.002;2023-02-10T04:35:33;101949.00;;;-3.33;98.66
20424;BME280;10371;49.042;8.002;2023-02-10T04:36:34;101945.53;;;-3.39;98.54
20424;BME280;10371;49.042;8.002;2023-02-10T04:37:34;101945.50;;;-3.40;98.52
20424;BME280;10371;49.042;8.002;2023-02-10T04:38:34;101950.63;;;-3.39;98.52
20424;BME280;10371;49.042;8.002;2023-02-10T04:39:35;101959.09;;;-3.41;98.47
20424;BME280;10371;49.042;8.002;2023-02-10T04:40:35;101951.41;;;-3.43;98.55
20424;BME280;10371;49.042;8.002;2023-02-10T04:41:35;101948.03;;;-3.43;98.47
20424;BME280;10371;49.042;8.002;2023-02-10T04:42:36;101946.25;;;-3.49;98.49
20424;BME280;10371;49.042;8.002;2023-02-10T04:43:36;101951.38;;;-3.46;98.55
20424;BME280;10371;49.042;8.002;2023-02-10T04:44:37;101953.09;;;-3.48;98.62
20424;BME280;10371;49.042;8.002;2023-02-10T04:45:37;101952.19;;;-3.48;98.57
20424;BME280;10371;49.042;8.002;2023-02-10T04:46:38;101955.59;;;-3.49;98.62
20424;BME280;10371;49.042;8.002;2023-02-10T04:47:38;101964.94;;;-3.50;98.79
20424;BME280;10371;49.042;8.002;2023-02-10T04:48:38;101955.56;;;-3.52;98.65
20424;BME280;10371;49.042;8.002;2023-02-10T04:49:38;101951.31;;;-3.53;98.85
20424;BME280;10371;49.042;8.002;2023-02-10T04:50:39;101964.06;;;-3.52;98.73
20424;BME280;10371;49.042;8.002;2023-02-10T04:51:39;101957.22;;;-3.54;98.70
20424;BME280;10371;49.042;8.002;2023-02-10T04:52:39;101958.94;;;-3.56;98.58
20424;BME280;10371;49.042;8.002;2023-02-10T04:53:40;101961.47;;;-3.56;98.60
20424;BME280;10371;49.042;8.002;2023-02-10T04:54:43;101958.00;;;-3.60;98.71
20424;BME280;10371;49.042;8.002;2023-02-10T04:55:43;101963.94;;;-3.60;98.72
20424;BME280;10371;49.042;8.002;2023-02-10T04:56:43;101956.28;;;-3.64;98.84
20424;BME280;10371;49.042;8.002;2023-02-10T04:57:44;101962.19;;;-3.67;98.80
20424;BME280;10371;49.042;8.002;2023-02-10T04:58:44;101968.09;;;-3.69;98.85
20424;BME280;10371;49.042;8.002;2023-02-10T04:59:44;101959.47;;;-3.80;98.76
20424;BME280;10371;49.042;8.002;2023-02-10T05:00:45;101961.09;;;-3.87;98.75
20424;BME280;10371;49.042;8.002;2023-02-10T05:01:45;101974.53;;;-3.94;98.74
20424;BME280;10371;49.042;8.002;2023-02-10T05:02:45;101977.91;;;-3.97;99.01
20424;BME280;10371;49.042;8.002;2023-02-10T05:03:46;101971.06;;;-3.99;99.26
20424;BME280;10371;49.042;8.002;2023-02-10T05:04:46;101979.47;;;-4.05;99.32
20424;BME280;10371;49.042;8.002;2023-02-10T05:05:46;101974.34;;;-4.08;99.69
20424;BME280;10371;49.042;8.002;2023-02-10T05:06:47;101965.84;;;-4.10;100.00
20424;BME280;10371;49.042;8.002;2023-02-10T05:07:47;101974.34;;;-4.08;99.95
20424;BME280;10371;49.042;8.002;2023-02-10T05:08:47;101982.78;;;-4.11;100.00
20424;BME280;10371;49.042;8.002;2023-02-10T05:09:49;101977.59;;;-4.18;100.00
20424;BME280;10371;49.042;8.002;2023-02-10T05:10:50;101968.25;;;-4.19;100.00
20424;BME280;10371;49.042;8.002;2023-02-10T05:11:51;101971.66;;;-4.19;100.00
20424;BME280;10371;49.042;8.002;2023-02-10T05:12:51;101981.81;;;-4.19;100.00
20424;BME280;10371;49.042;8.002;2023-02-10T05:13:52;101980.13;;;-4.20;100.00
20424;BME280;10371;49.042;8.002;2023-02-10T05:14:52;101977.53;;;-4.21;100.00
20424;BME280;10371;49.042;8.002;2023-02-10T05:15:52;101976.66;;;-4.25;100.00
20424;BME280;10371;49.042;8.002;2023-02-10T05:16:53;101983.44;;;-4.24;100.00
20424;BME280;10371;49.042;8.002;2023-02-10T05:17:53;101977.50;;;-4.26;100.00
20424;BME280;10371;49.042;8.002;2023-02-10T05:18:53;101981.72;;;-4.25;100.00
20424;BME280;10371;49.042;8.002;2023-02-10T05:19:53;101987.66;;;-4.24;100.00
20424;BME280;10371;49.042;8.002;2023-02-10T05:20:54;101983.44;;;-4.24;100.00
20424;BME280;10371;49.042;8.002;2023-02-10T05:21:54;101980.00;;;-4.28;100.00
20424;BME280;10371;49.042;8.002;2023-02-10T05:22:54;101996.16;;;-4.24;100.00
20424;BME280;10371;49.042;8.002;2023-02-10T05:23:57;101990.25;;;-4.23;100.00
20424;BME280;10371;49.042;8.002;2023-02-10T05:24:58;101991.91;;;-4.23;100.00
20424;BME280;10371;49.042;8.002;2023-02-10T05:25:58;101998.72;;;-4.21;100.00
20424;BME280;10371;49.042;8.002;2023-02-10T05:26:58;101987.66;;;-4.24;100.00
20424;BME280;10371;49.042;8.002;2023-02-10T05:27:58;101998.69;;;-4.25;100.00
20424;BME280;10371;49.042;8.002;2023-02-10T05:28:59;102008.00;;;-4.24;100.00
20424;BME280;10371;49.042;8.002;2023-02-10T05:29:59;101993.50;;;-4.30;100.00
20424;BME280;10371;49.042;8.002;2023-02-10T05:30:59;102008.81;;;-4.27;100.00
20424;BME280;10371;49.042;8.002;2023-02-10T05:32:00;102010.47;;;-4.29;100.00
20424;BME280;10371;49.042;8.002;2023-02-10T05:33:00;102006.19;;;-4.33;100.00
20424;BME280;10371;49.042;8.002;2023-02-10T05:34:00;102013.84;;;-4.30;100.00
20424;BME280;10371;49.042;8.002;2023-02-10T05:35:01;102014.78;;;-4.25;100.00
20424;BME280;10371;49.042;8.002;2023-02-10T05:36:02;102020.72;;;-4.26;100.00